KBDL/BDL METAR and TAF weather

Enter ICAO airport designator
Station Type Date Time Source
KBDL METAR 2019/10/18 10:51 UTC NOAA

KBDL 181051Z 31017G22KT 10SM BKN033 11/04 A2967 RMK AO2 SLP047 T01060039


Station Type Date Time Source
KBDL Decoded METAR 2019/10/18 10:51 UTC NOAA

BRADLEY INTERNATIONAL AIRPORT , CT, United States (KBDL) 41-56N 072-41W 60M
Oct 18, 2019 - 06:51 AM EDT / 2019.10.18 1051 UTC
Wind: from the NW (310 degrees) at 20 MPH (17 KT) gusting to 25 MPH (22 KT):0
Visibility: 10 mile(s):0
Sky conditions: mostly cloudy
Temperature: 51.1 F (10.6 C)
Dew Point: 39.0 F (3.9 C)
Relative Humidity: 63%
Pressure (altimeter): 29.67 in. Hg (1004 hPa)
ob: KBDL 181051Z 31017G22KT 10SM BKN033 11/04 A2967 RMK AO2 SLP047 T01060039
cycle: 11

Station Type Date Time Source
KBDL TAF 2019/10/18 10:03 UTC NOAA

TAF
AMD KBDL 181000Z 1810/1912 28010KT P6SM BKN035
FM181600 31010G20KT P6SM SCT030
FM182100 32009KT P6SM SKC

Example: see airport list